sensor_id;sensor_type;location;lat;lon;timestamp;P1;durP1;ratioP1;P2;durP2;ratioP2
78402;SDS011;67687;43.508;1.504;2024-03-23T00:55:13;11.68;;;7.47;;
78402;SDS011;67687;43.508;1.504;2024-03-23T00:57:39;12.10;;;7.75;;
78402;SDS011;67687;43.508;1.504;2024-03-23T01:00:06;11.55;;;7.53;;
78402;SDS011;67687;43.508;1.504;2024-03-23T01:02:35;10.47;;;7.50;;
78402;SDS011;67687;43.508;1.504;2024-03-23T01:05:02;15.63;;;8.00;;
78402;SDS011;67687;43.508;1.504;2024-03-23T01:07:28;11.63;;;8.02;;
78402;SDS011;67687;43.508;1.504;2024-03-23T01:09:54;13.60;;;7.88;;
78402;SDS011;67687;43.508;1.504;2024-03-23T01:12:21;11.27;;;7.77;;
78402;SDS011;67687;43.508;1.504;2024-03-23T01:14:48;14.75;;;7.97;;
78402;SDS011;67687;43.508;1.504;2024-03-23T01:17:14;13.05;;;8.35;;
78402;SDS011;67687;43.508;1.504;2024-03-23T01:19:40;14.07;;;7.93;;
78402;SDS011;67687;43.508;1.504;2024-03-23T01:22:06;15.77;;;8.65;;
78402;SDS011;67687;43.508;1.504;2024-03-23T01:24:35;14.35;;;8.82;;
78402;SDS011;67687;43.508;1.504;2024-03-23T01:27:00;14.27;;;8.87;;
78402;SDS011;67687;43.508;1.504;2024-03-23T01:29:28;21.15;;;8.90;;
78402;SDS011;67687;43.508;1.504;2024-03-23T01:31:54;13.38;;;8.15;;
78402;SDS011;67687;43.508;1.504;2024-03-23T01:34:21;13.48;;;9.23;;
78402;SDS011;67687;43.508;1.504;2024-03-23T01:36:47;12.33;;;8.60;;
78402;SDS011;67687;43.508;1.504;2024-03-23T01:39:13;15.80;;;8.82;;
78402;SDS011;67687;43.508;1.504;2024-03-23T01:41:39;13.55;;;8.50;;
78402;SDS011;67687;43.508;1.504;2024-03-23T01:44:07;13.10;;;8.63;;
78402;SDS011;67687;43.508;1.504;2024-03-23T01:46:34;14.10;;;8.90;;
78402;SDS011;67687;43.508;1.504;2024-03-23T01:49:02;16.85;;;9.50;;
78402;SDS011;67687;43.508;1.504;2024-03-23T01:51:28;13.60;;;8.70;;
78402;SDS011;67687;43.508;1.504;2024-03-23T01:53:55;13.82;;;8.48;;
78402;SDS011;67687;43.508;1.504;2024-03-23T01:56:21;16.00;;;8.63;;
78402;SDS011;67687;43.508;1.504;2024-03-23T01:58:48;14.82;;;8.70;;
78402;SDS011;67687;43.508;1.504;2024-03-23T02:01:14;14.48;;;9.15;;
78402;SDS011;67687;43.508;1.504;2024-03-23T02:03:42;15.63;;;8.85;;
78402;SDS011;67687;43.508;1.504;2024-03-23T02:06:08;16.57;;;8.77;;
78402;SDS011;67687;43.508;1.504;2024-03-23T02:08:35;12.25;;;7.57;;
78402;SDS011;67687;43.508;1.504;2024-03-23T02:11:00;14.88;;;8.27;;
78402;SDS011;67687;43.508;1.504;2024-03-23T02:13:27;13.93;;;7.77;;
78402;SDS011;67687;43.508;1.504;2024-03-23T02:15:53;13.45;;;8.10;;
78402;SDS011;67687;43.508;1.504;2024-03-23T02:18:19;15.73;;;7.65;;
78402;SDS011;67687;43.508;1.504;2024-03-23T02:20:46;13.70;;;7.10;;
78402;SDS011;67687;43.508;1.504;2024-03-23T02:23:15;12.13;;;6.97;;
78402;SDS011;67687;43.508;1.504;2024-03-23T02:25:41;13.43;;;6.07;;
78402;SDS011;67687;43.508;1.504;2024-03-23T02:28:07;10.70;;;5.80;;
78402;SDS011;67687;43.508;1.504;2024-03-23T02:30:33;9.97;;;5.70;;
78402;SDS011;67687;43.508;1.504;2024-03-23T02:33:00;11.43;;;6.25;;
78402;SDS011;67687;43.508;1.504;2024-03-23T02:35:26;10.52;;;5.97;;
78402;SDS011;67687;43.508;1.504;2024-03-23T02:37:53;8.98;;;5.30;;
78402;SDS011;67687;43.508;1.504;2024-03-23T02:40:20;9.50;;;5.30;;
78402;SDS011;67687;43.508;1.504;2024-03-23T02:42:48;11.30;;;5.40;;
78402;SDS011;67687;43.508;1.504;2024-03-23T02:45:14;11.43;;;5.35;;
78402;SDS011;67687;43.508;1.504;2024-03-23T02:47:40;9.43;;;5.00;;
78402;SDS011;67687;43.508;1.504;2024-03-23T02:50:06;8.60;;;4.78;;
78402;SDS011;67687;43.508;1.504;2024-03-23T02:52:34;7.57;;;4.30;;
78402;SDS011;67687;43.508;1.504;2024-03-23T02:55:00;8.07;;;4.07;;
78402;SDS011;67687;43.508;1.504;2024-03-23T02:57:28;7.05;;;3.55;;
78402;SDS011;67687;43.508;1.504;2024-03-23T02:59:54;7.55;;;3.92;;
78402;SDS011;67687;43.508;1.504;2024-03-23T03:02:21;7.75;;;3.63;;
78402;SDS011;67687;43.508;1.504;2024-03-23T03:04:46;7.60;;;3.90;;
78402;SDS011;67687;43.508;1.504;2024-03-23T03:07:13;7.93;;;3.97;;
78402;SDS011;67687;43.508;1.504;2024-03-23T03:09:39;7.43;;;3.47;;
78402;SDS011;67687;43.508;1.504;2024-03-23T03:12:06;8.30;;;3.38;;
78402;SDS011;67687;43.508;1.504;2024-03-23T03:14:34;7.03;;;3.30;;
78402;SDS011;67687;43.508;1.504;2024-03-23T03:17:00;10.55;;;3.60;;
78402;SDS011;67687;43.508;1.504;2024-03-23T03:19:26;7.43;;;3.63;;
78402;SDS011;67687;43.508;1.504;2024-03-23T03:21:53;7.07;;;3.30;;
78402;SDS011;67687;43.508;1.504;2024-03-23T03:24:19;7.60;;;3.30;;
78402;SDS011;67687;43.508;1.504;2024-03-23T03:26:45;7.95;;;3.17;;
78402;SDS011;67687;43.508;1.504;2024-03-23T03:29:11;8.20;;;3.40;;
78402;SDS011;67687;43.508;1.504;2024-03-23T03:31:39;7.75;;;3.95;;
78402;SDS011;67687;43.508;1.504;2024-03-23T03:34:05;7.80;;;3.75;;
78402;SDS011;67687;43.508;1.504;2024-03-23T03:36:32;8.18;;;3.75;;
78402;SDS011;67687;43.508;1.504;2024-03-23T03:38:57;8.40;;;3.63;;
78402;SDS011;67687;43.508;1.504;2024-03-23T03:41:24;8.55;;;3.47;;
78402;SDS011;67687;43.508;1.504;2024-03-23T03:43:50;6.53;;;3.28;;
78402;SDS011;67687;43.508;1.504;2024-03-23T03:46:16;7.50;;;3.30;;
78402;SDS011;67687;43.508;1.504;2024-03-23T03:48:43;8.45;;;3.45;;
78402;SDS011;67687;43.508;1.504;2024-03-23T03:51:12;9.63;;;3.78;;
78402;SDS011;67687;43.508;1.504;2024-03-23T03:53:38;7.77;;;3.50;;
78402;SDS011;67687;43.508;1.504;2024-03-23T03:56:05;7.60;;;3.40;;
78402;SDS011;67687;43.508;1.504;2024-03-23T03:58:31;7.75;;;3.70;;
78402;SDS011;67687;43.508;1.504;2024-03-23T04:00:58;6.72;;;3.00;;
78402;SDS011;67687;43.508;1.504;2024-03-23T04:03:24;8.57;;;2.97;;
78402;SDS011;67687;43.508;1.504;2024-03-23T04:05:52;7.60;;;3.25;;
78402;SDS011;67687;43.508;1.504;2024-03-23T04:08:18;7.32;;;3.05;;
78402;SDS011;67687;43.508;1.504;2024-03-23T04:10:45;8.18;;;3.45;;
78402;SDS011;67687;43.508;1.504;2024-03-23T04:13:11;8.07;;;3.70;;
78402;SDS011;67687;43.508;1.504;2024-03-23T04:15:38;7.65;;;3.60;;
78402;SDS011;67687;43.508;1.504;2024-03-23T04:18:04;8.40;;;3.22;;
78402;SDS011;67687;43.508;1.504;2024-03-23T04:20:31;8.33;;;3.10;;
78402;SDS011;67687;43.508;1.504;2024-03-23T04:22:58;10.43;;;3.20;;
78402;SDS011;67687;43.508;1.504;2024-03-23T04:25:25;8.63;;;3.17;;
78402;SDS011;67687;43.508;1.504;2024-03-23T04:27:51;5.63;;;3.08;;
78402;SDS011;67687;43.508;1.504;2024-03-23T04:30:17;7.17;;;2.90;;
78402;SDS011;67687;43.508;1.504;2024-03-23T04:32:44;8.02;;;3.20;;
78402;SDS011;67687;43.508;1.504;2024-03-23T04:35:11;9.40;;;3.35;;
78402;SDS011;67687;43.508;1.504;2024-03-23T04:37:37;7.70;;;3.43;;
78402;SDS011;67687;43.508;1.504;2024-03-23T04:40:07;9.17;;;3.10;;
78402;SDS011;67687;43.508;1.504;2024-03-23T04:42:36;11.02;;;3.33;;
78402;SDS011;67687;43.508;1.504;2024-03-23T04:45:03;6.72;;;2.97;;
78402;SDS011;67687;43.508;1.504;2024-03-23T04:47:31;7.72;;;3.15;;
78402;SDS011;67687;43.508;1.504;2024-03-23T04:49:58;8.18;;;3.22;;
78402;SDS011;67687;43.508;1.504;2024-03-23T04:52:26;7.13;;;2.97;;
78402;SDS011;67687;43.508;1.504;2024-03-23T04:54:53;6.82;;;3.03;;
78402;SDS011;67687;43.508;1.504;2024-03-23T04:57:20;7.72;;;2.80;;
78402;SDS011;67687;43.508;1.504;2024-03-23T04:59:46;8.93;;;2.97;;
78402;SDS011;67687;43.508;1.504;2024-03-23T05:02:12;8.82;;;2.65;;
78402;SDS011;67687;43.508;1.504;2024-03-23T05:04:39;9.18;;;2.83;;
78402;SDS011;67687;43.508;1.504;2024-03-23T05:07:05;7.50;;;2.70;;
78402;SDS011;67687;43.508;1.504;2024-03-23T05:09:32;6.07;;;2.50;;
78402;SDS011;67687;43.508;1.504;2024-03-23T05:11:58;9.32;;;2.58;;
78402;SDS011;67687;43.508;1.504;2024-03-23T05:14:26;7.07;;;2.42;;
78402;SDS011;67687;43.508;1.504;2024-03-23T05:16:52;7.43;;;2.50;;
78402;SDS011;67687;43.508;1.504;2024-03-23T05:19:19;9.05;;;3.00;;
78402;SDS011;67687;43.508;1.504;2024-03-23T05:21:44;6.30;;;2.43;;
78402;SDS011;67687;43.508;1.504;2024-03-23T05:24:12;8.68;;;2.67;;
78402;SDS011;67687;43.508;1.504;2024-03-23T05:26:37;8.30;;;2.58;;
78402;SDS011;67687;43.508;1.504;2024-03-23T05:29:04;6.30;;;2.20;;
78402;SDS011;67687;43.508;1.504;2024-03-23T05:31:33;9.33;;;2.40;;
78402;SDS011;67687;43.508;1.504;2024-03-23T05:34:00;6.50;;;2.55;;
78402;SDS011;67687;43.508;1.504;2024-03-23T05:36:25;5.30;;;2.30;;
78402;SDS011;67687;43.508;1.504;2024-03-23T05:38:52;7.43;;;2.33;;
78402;SDS011;67687;43.508;1.504;2024-03-23T05:41:18;6.30;;;2.38;;
78402;SDS011;67687;43.508;1.504;2024-03-23T05:43:45;4.88;;;2.50;;
78402;SDS011;67687;43.508;1.504;2024-03-23T05:46:10;6.07;;;2.23;;
78402;SDS011;67687;43.508;1.504;2024-03-23T05:48:39;7.80;;;2.45;;
78402;SDS011;67687;43.508;1.504;2024-03-23T05:51:04;6.38;;;2.53;;
78402;SDS011;67687;43.508;1.504;2024-03-23T05:53:31;6.07;;;2.40;;
78402;SDS011;67687;43.508;1.504;2024-03-23T05:56:00;7.65;;;2.60;;
78402;SDS011;67687;43.508;1.504;2024-03-23T05:58:29;6.93;;;2.77;;
78402;SDS011;67687;43.508;1.504;2024-03-23T06:00:56;9.05;;;2.40;;
78402;SDS011;67687;43.508;1.504;2024-03-23T06:03:23;7.70;;;2.78;;
78402;SDS011;67687;43.508;1.504;2024-03-23T06:05:50;7.60;;;2.40;;
78402;SDS011;67687;43.508;1.504;2024-03-23T06:08:18;6.50;;;2.47;;
78402;SDS011;67687;43.508;1.504;2024-03-23T06:10:44;8.80;;;2.90;;
78402;SDS011;67687;43.508;1.504;2024-03-23T06:13:11;6.95;;;3.05;;
78402;SDS011;67687;43.508;1.504;2024-03-23T06:15:37;6.17;;;2.17;;
78402;SDS011;67687;43.508;1.504;2024-03-23T06:18:04;6.00;;;2.57;;
78402;SDS011;67687;43.508;1.504;2024-03-23T06:20:30;7.85;;;2.90;;
78402;SDS011;67687;43.508;1.504;2024-03-23T06:22:58;7.00;;;2.28;;
78402;SDS011;67687;43.508;1.504;2024-03-23T06:25:24;6.10;;;2.17;;
78402;SDS011;67687;43.508;1.504;2024-03-23T06:27:50;5.30;;;2.45;;
78402;SDS011;67687;43.508;1.504;2024-03-23T06:30:16;7.00;;;2.50;;
78402;SDS011;67687;43.508;1.504;2024-03-23T06:32:43;5.72;;;2.10;;
78402;SDS011;67687;43.508;1.504;2024-03-23T06:35:08;7.73;;;2.03;;
78402;SDS011;67687;43.508;1.504;2024-03-23T06:37:35;6.75;;;2.47;;
78402;SDS011;67687;43.508;1.504;2024-03-23T06:40:02;8.60;;;2.40;;
78402;SDS011;67687;43.508;1.504;2024-03-23T06:42:33;7.70;;;2.28;;
78402;SDS011;67687;43.508;1.504;2024-03-23T06:44:59;7.77;;;2.37;;
78402;SDS011;67687;43.508;1.504;2024-03-23T06:47:25;5.57;;;2.38;;
78402;SDS011;67687;43.508;1.504;2024-03-23T06:49:51;5.93;;;2.50;;
78402;SDS011;67687;43.508;1.504;2024-03-23T06:52:18;7.40;;;2.42;;
78402;SDS011;67687;43.508;1.504;2024-03-23T06:54:44;5.97;;;2.30;;
78402;SDS011;67687;43.508;1.504;2024-03-23T06:57:12;4.13;;;2.00;;
78402;SDS011;67687;43.508;1.504;2024-03-23T06:59:37;5.47;;;2.08;;
78402;SDS011;67687;43.508;1.504;2024-03-23T07:02:05;5.63;;;2.20;;
78402;SDS011;67687;43.508;1.504;2024-03-23T07:04:33;5.43;;;2.00;;
78402;SDS011;67687;43.508;1.504;2024-03-23T07:07:00;5.20;;;2.63;;
78402;SDS011;67687;43.508;1.504;2024-03-23T07:09:26;7.00;;;2.30;;
78402;SDS011;67687;43.508;1.504;2024-03-23T07:11:53;6.40;;;2.42;;
78402;SDS011;67687;43.508;1.504;2024-03-23T07:14:21;7.50;;;2.20;;
78402;SDS011;67687;43.508;1.504;2024-03-23T07:16:47;7.85;;;2.72;;
78402;SDS011;67687;43.508;1.504;2024-03-23T07:19:14;7.43;;;2.65;;
78402;SDS011;67687;43.508;1.504;2024-03-23T07:21:41;5.72;;;2.50;;
78402;SDS011;67687;43.508;1.504;2024-03-23T07:24:07;4.30;;;1.80;;
78402;SDS011;67687;43.508;1.504;2024-03-23T07:26:34;8.35;;;2.50;;
78402;SDS011;67687;43.508;1.504;2024-03-23T07:28:59;4.72;;;2.40;;
78402;SDS011;67687;43.508;1.504;2024-03-23T07:31:28;6.00;;;2.37;;
78402;SDS011;67687;43.508;1.504;2024-03-23T07:33:54;6.13;;;2.67;;
78402;SDS011;67687;43.508;1.504;2024-03-23T07:36:20;7.55;;;2.80;;
78402;SDS011;67687;43.508;1.504;2024-03-23T07:38:46;5.93;;;2.60;;
78402;SDS011;67687;43.508;1.504;2024-03-23T07:41:15;8.67;;;2.50;;
78402;SDS011;67687;43.508;1.504;2024-03-23T07:43:42;7.28;;;2.33;;
78402;SDS011;67687;43.508;1.504;2024-03-23T07:46:09;7.32;;;2.33;;
78402;SDS011;67687;43.508;1.504;2024-03-23T07:48:36;6.43;;;2.70;;
78402;SDS011;67687;43.508;1.504;2024-03-23T07:51:04;8.07;;;2.85;;
78402;SDS011;67687;43.508;1.504;2024-03-23T07:53:30;4.63;;;2.00;;
78402;SDS011;67687;43.508;1.504;2024-03-23T07:55:58;4.95;;;1.30;;
78402;SDS011;67687;43.508;1.504;2024-03-23T07:58:25;4.70;;;0.80;;
78402;SDS011;67687;43.508;1.504;2024-03-23T08:00:53;3.23;;;0.80;;
78402;SDS011;67687;43.508;1.504;2024-03-23T08:03:18;2.80;;;0.57;;
78402;SDS011;67687;43.508;1.504;2024-03-23T08:05:46;3.22;;;0.73;;
78402;SDS011;67687;43.508;1.504;2024-03-23T08:08:12;4.78;;;0.82;;
78402;SDS011;67687;43.508;1.504;2024-03-23T08:10:47;3.95;;;0.85;;
78402;SDS011;67687;43.508;1.504;2024-03-23T08:13:13;2.83;;;0.87;;
78402;SDS011;67687;43.508;1.504;2024-03-23T08:15:39;4.30;;;0.80;;
78402;SDS011;67687;43.508;1.504;2024-03-23T08:18:05;4.22;;;0.80;;
78402;SDS011;67687;43.508;1.504;2024-03-23T08:20:32;3.33;;;0.80;;
78402;SDS011;67687;43.508;1.504;2024-03-23T08:22:59;4.57;;;0.77;;
78402;SDS011;67687;43.508;1.504;2024-03-23T08:25:26;3.55;;;0.82;;
78402;SDS011;67687;43.508;1.504;2024-03-23T08:27:51;3.67;;;0.90;;
78402;SDS011;67687;43.508;1.504;2024-03-23T08:30:18;5.28;;;1.35;;
78402;SDS011;67687;43.508;1.504;2024-03-23T08:32:44;5.95;;;1.10;;
78402;SDS011;67687;43.508;1.504;2024-03-23T08:35:11;9.40;;;1.47;;
78402;SDS011;67687;43.508;1.504;2024-03-23T08:37:36;6.63;;;1.20;;
78402;SDS011;67687;43.508;1.504;2024-03-23T08:40:05;10.32;;;1.52;;
78402;SDS011;67687;43.508;1.504;2024-03-23T08:42:33;9.57;;;1.60;;
78402;SDS011;67687;43.508;1.504;2024-03-23T08:45:00;9.02;;;1.33;;
78402;SDS011;67687;43.508;1.504;2024-03-23T08:47:25;8.18;;;1.40;;
78402;SDS011;67687;43.508;1.504;2024-03-23T08:49:52;7.28;;;1.23;;
78402;SDS011;67687;43.508;1.504;2024-03-23T08:52:18;5.07;;;1.30;;
78402;SDS011;67687;43.508;1.504;2024-03-23T08:54:45;6.00;;;1.17;;
78402;SDS011;67687;43.508;1.504;2024-03-23T08:57:12;4.78;;;1.02;;
78402;SDS011;67687;43.508;1.504;2024-03-23T08:59:39;5.93;;;1.10;;
78402;SDS011;67687;43.508;1.504;2024-03-23T09:02:05;6.32;;;1.30;;
78402;SDS011;67687;43.508;1.504;2024-03-23T09:04:31;6.97;;;1.40;;
78402;SDS011;67687;43.508;1.504;2024-03-23T09:06:57;7.30;;;1.40;;
78402;SDS011;67687;43.508;1.504;2024-03-23T09:09:25;6.90;;;1.40;;
78402;SDS011;67687;43.508;1.504;2024-03-23T09:11:51;8.43;;;1.60;;
78402;SDS011;67687;43.508;1.504;2024-03-23T09:14:19;5.23;;;1.60;;
78402;SDS011;67687;43.508;1.504;2024-03-23T09:16:44;7.03;;;1.20;;
78402;SDS011;67687;43.508;1.504;2024-03-23T09:19:11;6.35;;;1.38;;
78402;SDS011;67687;43.508;1.504;2024-03-23T09:21:37;6.55;;;1.40;;
78402;SDS011;67687;43.508;1.504;2024-03-23T09:24:04;7.97;;;1.70;;
78402;SDS011;67687;43.508;1.504;2024-03-23T09:26:29;6.97;;;1.52;;
78402;SDS011;67687;43.508;1.504;2024-03-23T09:28:56;7.13;;;1.52;;
78402;SDS011;67687;43.508;1.504;2024-03-23T09:31:23;14.33;;;1.63;;
78402;SDS011;67687;43.508;1.504;2024-03-23T09:33:50;8.85;;;1.85;;
78402;SDS011;67687;43.508;1.504;2024-03-23T09:36:15;5.22;;;1.33;;
78402;SDS011;67687;43.508;1.504;2024-03-23T09:38:42;9.90;;;1.58;;
78402;SDS011;67687;43.508;1.504;2024-03-23T09:41:08;10.10;;;1.47;;
78402;SDS011;67687;43.508;1.504;2024-03-23T09:43:35;7.80;;;1.05;;
78402;SDS011;67687;43.508;1.504;2024-03-23T09:46:01;9.17;;;1.40;;
78402;SDS011;67687;43.508;1.504;2024-03-23T09:48:29;6.18;;;1.45;;
78402;SDS011;67687;43.508;1.504;2024-03-23T09:50:55;5.57;;;1.13;;
78402;SDS011;67687;43.508;1.504;2024-03-23T09:53:22;9.50;;;1.40;;
78402;SDS011;67687;43.508;1.504;2024-03-23T09:55:48;7.10;;;1.30;;
78402;SDS011;67687;43.508;1.504;2024-03-23T09:58:16;7.70;;;1.50;;
78402;SDS011;67687;43.508;1.504;2024-03-23T10:00:42;6.10;;;1.52;;
78402;SDS011;67687;43.508;1.504;2024-03-23T10:03:09;7.07;;;1.20;;
78402;SDS011;67687;43.508;1.504;2024-03-23T10:05:37;6.70;;;1.50;;
78402;SDS011;67687;43.508;1.504;2024-03-23T10:08:16;7.10;;;1.47;;
78402;SDS011;67687;43.508;1.504;2024-03-23T10:10:43;6.85;;;1.58;;
78402;SDS011;67687;43.508;1.504;2024-03-23T10:13:10;7.85;;;1.40;;
78402;SDS011;67687;43.508;1.504;2024-03-23T10:15:38;6.32;;;1.38;;
78402;SDS011;67687;43.508;1.504;2024-03-23T10:18:05;7.57;;;1.30;;
78402;SDS011;67687;43.508;1.504;2024-03-23T10:20:46;7.53;;;1.20;;
78402;SDS011;67687;43.508;1.504;2024-03-23T10:23:15;8.60;;;1.33;;
78402;SDS011;67687;43.508;1.504;2024-03-23T10:25:41;5.32;;;1.25;;
78402;SDS011;67687;43.508;1.504;2024-03-23T10:28:08;7.18;;;1.50;;
78402;SDS011;67687;43.508;1.504;2024-03-23T10:30:34;7.00;;;1.30;;
78402;SDS011;67687;43.508;1.504;2024-03-23T10:33:06;7.67;;;1.20;;
78402;SDS011;67687;43.508;1.504;2024-03-23T10:35:33;9.30;;;1.30;;
78402;SDS011;67687;43.508;1.504;2024-03-23T10:38:01;7.88;;;1.35;;
78402;SDS011;67687;43.508;1.504;2024-03-23T10:40:28;6.95;;;1.80;;
78402;SDS011;67687;43.508;1.504;2024-03-23T10:42:56;9.57;;;1.50;;
78402;SDS011;67687;43.508;1.504;2024-03-23T10:45:23;7.53;;;1.33;;
78402;SDS011;67687;43.508;1.504;2024-03-23T10:47:50;7.50;;;1.70;;
78402;SDS011;67687;43.508;1.504;2024-03-23T10:50:17;6.43;;;1.10;;
78402;SDS011;67687;43.508;1.504;2024-03-23T10:52:45;7.53;;;1.40;;
78402;SDS011;67687;43.508;1.504;2024-03-23T10:55:14;6.18;;;1.40;;
78402;SDS011;67687;43.508;1.504;2024-03-23T10:57:44;6.80;;;1.10;;
78402;SDS011;67687;43.508;1.504;2024-03-23T11:00:12;8.40;;;1.35;;
78402;SDS011;67687;43.508;1.504;2024-03-23T11:02:39;7.13;;;1.50;;
78402;SDS011;67687;43.508;1.504;2024-03-23T11:07:54;8.17;;;1.60;;
78402;SDS011;67687;43.508;1.504;2024-03-23T11:10:25;5.72;;;1.60;;
78402;SDS011;67687;43.508;1.504;2024-03-23T11:12:54;6.30;;;1.40;;
78402;SDS011;67687;43.508;1.504;2024-03-23T11:15:20;5.93;;;1.75;;
78402;SDS011;67687;43.508;1.504;2024-03-23T11:20:31;5.18;;;1.45;;
78402;SDS011;67687;43.508;1.504;2024-03-23T11:22:58;7.22;;;1.17;;
78402;SDS011;67687;43.508;1.504;2024-03-23T11:25:26;6.25;;;1.02;;
78402;SDS011;67687;43.508;1.504;2024-03-23T11:27:54;4.30;;;1.10;;
78402;SDS011;67687;43.508;1.504;2024-03-23T11:30:20;5.37;;;1.00;;
78402;SDS011;67687;43.508;1.504;2024-03-23T11:32:49;6.57;;;1.17;;
78402;SDS011;67687;43.508;1.504;2024-03-23T11:35:25;5.43;;;1.17;;
78402;SDS011;67687;43.508;1.504;2024-03-23T11:38:05;6.35;;;1.20;;
78402;SDS011;67687;43.508;1.504;2024-03-23T11:40:33;5.38;;;0.85;;
78402;SDS011;67687;43.508;1.504;2024-03-23T11:43:02;4.63;;;0.80;;
78402;SDS011;67687;43.508;1.504;2024-03-23T11:45:33;4.47;;;0.95;;
78402;SDS011;67687;43.508;1.504;2024-03-23T11:48:04;3.60;;;0.70;;
78402;SDS011;67687;43.508;1.504;2024-03-23T11:50:31;5.43;;;0.60;;
78402;SDS011;67687;43.508;1.504;2024-03-23T11:53:12;3.22;;;0.85;;
78402;SDS011;67687;43.508;1.504;2024-03-23T11:55:41;4.80;;;1.10;;
78402;SDS011;67687;43.508;1.504;2024-03-23T11:58:08;3.53;;;0.63;;
78402;SDS011;67687;43.508;1.504;2024-03-23T12:00:35;3.45;;;0.68;;
78402;SDS011;67687;43.508;1.504;2024-03-23T12:03:02;3.50;;;0.70;;
78402;SDS011;67687;43.508;1.504;2024-03-23T12:05:28;4.60;;;0.98;;
78402;SDS011;67687;43.508;1.504;2024-03-23T12:07:55;5.47;;;0.80;;
78402;SDS011;67687;43.508;1.504;2024-03-23T12:10:21;3.53;;;1.08;;
78402;SDS011;67687;43.508;1.504;2024-03-23T12:13:00;3.17;;;0.63;;
78402;SDS011;67687;43.508;1.504;2024-03-23T12:15:26;4.32;;;0.90;;
78402;SDS011;67687;43.508;1.504;2024-03-23T12:18:05;4.13;;;1.07;;
78402;SDS011;67687;43.508;1.504;2024-03-23T12:20:31;5.07;;;0.73;;
78402;SDS011;67687;43.508;1.504;2024-03-23T12:23:04;4.65;;;0.90;;
78402;SDS011;67687;43.508;1.504;2024-03-23T12:25:31;4.55;;;0.95;;
78402;SDS011;67687;43.508;1.504;2024-03-23T12:27:58;3.80;;;0.90;;
78402;SDS011;67687;43.508;1.504;2024-03-23T12:30:25;4.00;;;1.10;;
78402;SDS011;67687;43.508;1.504;2024-03-23T12:32:52;5.53;;;0.80;;
78402;SDS011;67687;43.508;1.504;2024-03-23T12:35:18;7.70;;;0.95;;
78402;SDS011;67687;43.508;1.504;2024-03-23T12:37:44;4.67;;;0.70;;
78402;SDS011;67687;43.508;1.504;2024-03-23T12:40:10;5.60;;;0.68;;
78402;SDS011;67687;43.508;1.504;2024-03-23T12:42:37;3.72;;;1.23;;
78402;SDS011;67687;43.508;1.504;2024-03-23T12:45:05;5.20;;;0.90;;
78402;SDS011;67687;43.508;1.504;2024-03-23T12:47:32;4.57;;;0.90;;
78402;SDS011;67687;43.508;1.504;2024-03-23T12:49:57;4.53;;;0.83;;
78402;SDS011;67687;43.508;1.504;2024-03-23T12:52:24;5.10;;;1.07;;
78402;SDS011;67687;43.508;1.504;2024-03-23T12:54:53;3.97;;;0.80;;
78402;SDS011;67687;43.508;1.504;2024-03-23T12:57:22;3.90;;;0.80;;
78402;SDS011;67687;43.508;1.504;2024-03-23T12:59:49;3.83;;;0.70;;
78402;SDS011;67687;43.508;1.504;2024-03-23T13:02:17;4.60;;;0.75;;
78402;SDS011;67687;43.508;1.504;2024-03-23T13:04:44;3.87;;;0.90;;
78402;SDS011;67687;43.508;1.504;2024-03-23T13:07:11;4.40;;;0.70;;
78402;SDS011;67687;43.508;1.504;2024-03-23T13:09:37;3.10;;;0.60;;
78402;SDS011;67687;43.508;1.504;2024-03-23T13:12:04;4.90;;;1.00;;
78402;SDS011;67687;43.508;1.504;2024-03-23T13:14:31;5.05;;;1.10;;
78402;SDS011;67687;43.508;1.504;2024-03-23T13:16:57;4.83;;;1.00;;
78402;SDS011;67687;43.508;1.504;2024-03-23T13:19:24;3.70;;;0.90;;
78402;SDS011;67687;43.508;1.504;2024-03-23T13:21:52;3.45;;;0.70;;
78402;SDS011;67687;43.508;1.504;2024-03-23T13:24:21;4.33;;;0.97;;
78402;SDS011;67687;43.508;1.504;2024-03-23T13:26:49;3.75;;;0.70;;
78402;SDS011;67687;43.508;1.504;2024-03-23T13:29:15;3.85;;;0.70;;
78402;SDS011;67687;43.508;1.504;2024-03-23T13:31:41;4.63;;;0.80;;
78402;SDS011;67687;43.508;1.504;2024-03-23T13:34:07;5.40;;;1.10;;
78402;SDS011;67687;43.508;1.504;2024-03-23T13:36:35;5.05;;;1.23;;
78402;SDS011;67687;43.508;1.504;2024-03-23T13:39:01;5.57;;;1.17;;
78402;SDS011;67687;43.508;1.504;2024-03-23T13:41:30;4.95;;;1.00;;
78402;SDS011;67687;43.508;1.504;2024-03-23T13:43:56;3.83;;;1.00;;
78402;SDS011;67687;43.508;1.504;2024-03-23T13:46:22;5.88;;;1.58;;
78402;SDS011;67687;43.508;1.504;2024-03-23T13:48:48;5.55;;;1.25;;
78402;SDS011;67687;43.508;1.504;2024-03-23T13:51:15;3.90;;;0.87;;
78402;SDS011;67687;43.508;1.504;2024-03-23T13:53:42;4.60;;;1.05;;
78402;SDS011;67687;43.508;1.504;2024-03-23T13:56:08;5.25;;;1.13;;
78402;SDS011;67687;43.508;1.504;2024-03-23T13:58:34;3.23;;;0.77;;
78402;SDS011;67687;43.508;1.504;2024-03-23T14:01:01;5.40;;;1.10;;
78402;SDS011;67687;43.508;1.504;2024-03-23T14:03:27;4.67;;;1.13;;
78402;SDS011;67687;43.508;1.504;2024-03-23T14:05:57;5.07;;;0.80;;
78402;SDS011;67687;43.508;1.504;2024-03-23T14:08:23;4.25;;;0.95;;
78402;SDS011;67687;43.508;1.504;2024-03-23T14:10:51;6.65;;;1.02;;
78402;SDS011;67687;43.508;1.504;2024-03-23T14:13:17;5.80;;;1.00;;
78402;SDS011;67687;43.508;1.504;2024-03-23T14:15:43;4.57;;;0.90;;
78402;SDS011;67687;43.508;1.504;2024-03-23T14:18:09;4.13;;;0.70;;
78402;SDS011;67687;43.508;1.504;2024-03-23T14:20:36;4.10;;;1.02;;
78402;SDS011;67687;43.508;1.504;2024-03-23T14:23:01;6.37;;;1.00;;
78402;SDS011;67687;43.508;1.504;2024-03-23T14:25:28;4.82;;;1.30;;
78402;SDS011;67687;43.508;1.504;2024-03-23T14:27:57;7.53;;;1.17;;
78402;SDS011;67687;43.508;1.504;2024-03-23T14:30:23;7.20;;;1.10;;
78402;SDS011;67687;43.508;1.504;2024-03-23T14:32:49;5.30;;;0.90;;
78402;SDS011;67687;43.508;1.504;2024-03-23T14:35:16;6.28;;;0.90;;
78402;SDS011;67687;43.508;1.504;2024-03-23T14:37:42;5.43;;;1.00;;
78402;SDS011;67687;43.508;1.504;2024-03-23T14:40:09;3.13;;;0.80;;
78402;SDS011;67687;43.508;1.504;2024-03-23T14:42:37;6.20;;;0.80;;
78402;SDS011;67687;43.508;1.504;2024-03-23T14:45:06;5.78;;;0.98;;
78402;SDS011;67687;43.508;1.504;2024-03-23T14:47:32;6.65;;;1.08;;
78402;SDS011;67687;43.508;1.504;2024-03-23T14:49:59;5.75;;;1.10;;
78402;SDS011;67687;43.508;1.504;2024-03-23T14:52:26;7.00;;;1.00;;
78402;SDS011;67687;43.508;1.504;2024-03-23T14:54:52;8.60;;;1.10;;
78402;SDS011;67687;43.508;1.504;2024-03-23T14:57:18;4.97;;;1.08;;
78402;SDS011;67687;43.508;1.504;2024-03-23T14:59:45;8.27;;;1.10;;
78402;SDS011;67687;43.508;1.504;2024-03-23T15:02:12;6.10;;;0.97;;
78402;SDS011;67687;43.508;1.504;2024-03-23T15:04:39;3.60;;;0.70;;
78402;SDS011;67687;43.508;1.504;2024-03-23T15:07:07;6.45;;;1.42;;
78402;SDS011;67687;43.508;1.504;2024-03-23T15:09:33;5.88;;;1.10;;
78402;SDS011;67687;43.508;1.504;2024-03-23T15:11:59;5.88;;;0.80;;
78402;SDS011;67687;43.508;1.504;2024-03-23T15:14:26;6.13;;;1.03;;
78402;SDS011;67687;43.508;1.504;2024-03-23T15:16:51;6.53;;;1.30;;
78402;SDS011;67687;43.508;1.504;2024-03-23T15:19:20;6.30;;;1.25;;
78402;SDS011;67687;43.508;1.504;2024-03-23T15:21:46;6.53;;;1.03;;
78402;SDS011;67687;43.508;1.504;2024-03-23T15:24:13;5.28;;;0.80;;
78402;SDS011;67687;43.508;1.504;2024-03-23T15:26:38;4.97;;;0.90;;
78402;SDS011;67687;43.508;1.504;2024-03-23T15:29:05;4.78;;;0.90;;
78402;SDS011;67687;43.508;1.504;2024-03-23T15:31:36;5.50;;;1.03;;
78402;SDS011;67687;43.508;1.504;2024-03-23T15:34:03;5.53;;;1.00;;
78402;SDS011;67687;43.508;1.504;2024-03-23T15:36:31;7.00;;;1.10;;
78402;SDS011;67687;43.508;1.504;2024-03-23T15:38:57;4.07;;;0.80;;
78402;SDS011;67687;43.508;1.504;2024-03-23T15:41:23;5.87;;;1.10;;
78402;SDS011;67687;43.508;1.504;2024-03-23T15:43:50;4.20;;;0.70;;